Time;durP1;ratioP1;P1;durP2;ratioP2;P2;SDS_P1;SDS_P2;PMS_P1;PMS_P2;Temp;Humidity;BMP_temperature;BMP_pressure;BME280_temperature;BME280_humidity;BME280_pressure;Samples;Min_cycle;Max_cycle;Signal;HPM_P1;HPM_P2
2023/12/20 00:00:37;;;;;;;0.73;0.73;;;6.40;79.00;5.60;95920.00;;;;5072087;28;20192;-61
2023/12/20 00:03:05;;;;;;;0.73;0.73;;;6.40;78.50;5.70;95917.00;;;;5073693;28;20567;-62
2023/12/20 00:05:33;;;;;;;0.53;0.53;;;6.50;77.20;5.70;95910.00;;;;5073134;28;20223;-61
2023/12/20 00:08:00;;;;;;;0.60;0.60;;;6.50;77.30;5.80;95913.00;;;;5071988;28;20206;-62
2023/12/20 00:10:27;;;;;;;0.60;0.60;;;6.60;76.30;5.90;95906.00;;;;5073102;28;20658;-62
2023/12/20 00:12:55;;;;;;;0.60;0.60;;;6.70;76.20;5.90;95908.00;;;;5073010;28;20211;-62
2023/12/20 00:15:22;;;;;;;0.60;0.60;;;6.70;77.00;6.00;95909.00;;;;5071713;28;20196;-61
2023/12/20 00:17:51;;;;;;;0.60;0.60;;;6.70;76.90;6.10;95901.00;;;;5073003;28;20198;-62
2023/12/20 00:20:18;;;;;;;0.60;0.60;;;6.80;76.50;6.10;95900.00;;;;5073167;28;20187;-61
2023/12/20 00:22:45;;;;;;;0.60;0.60;;;6.80;76.80;5.90;95899.00;;;;5072979;28;20206;-61
2023/12/20 00:25:12;;;;;;;0.70;0.70;;;6.80;77.00;5.80;95906.00;;;;5072928;28;20684;-61
2023/12/20 00:27:39;;;;;;;0.60;0.60;;;6.60;78.30;5.80;95907.00;;;;5073140;28;20529;-61
2023/12/20 00:30:10;;;;;;;0.60;0.60;;;6.60;78.60;5.70;95907.00;;;;5072899;28;20245;-63
2023/12/20 00:32:37;;;;;;;0.93;0.93;;;6.60;79.30;5.80;95904.00;;;;5073472;28;20568;-64
2023/12/20 00:35:05;;;;;;;0.60;0.60;;;6.60;79.20;5.60;95896.00;;;;5072900;28;20191;-61
2023/12/20 00:37:34;;;;;;;0.60;0.60;;;6.40;80.00;5.50;95900.00;;;;5072828;28;20198;-61
2023/12/20 00:40:01;;;;;;;0.70;0.70;;;6.40;81.00;5.60;95899.00;;;;5075455;28;20278;-61
2023/12/20 00:42:28;;;;;;;1.00;1.00;;;6.40;81.00;5.60;95893.00;;;;5076562;28;20712;-62
2023/12/20 00:44:55;;;;;;;0.50;0.50;;;6.40;80.80;5.60;95879.00;;;;5076606;28;20200;-62
2023/12/20 00:47:23;;;;;;;0.80;0.80;;;6.40;81.40;5.60;95881.00;;;;5076614;28;20210;-62
2023/12/20 00:49:50;;;;;;;0.63;0.63;;;6.40;80.40;5.60;95882.00;;;;5076540;28;20190;-61
2023/12/20 00:52:18;;;;;;;0.70;0.70;;;6.40;81.00;5.70;95886.00;;;;5076351;28;20213;-62
2023/12/20 00:54:45;;;;;;;0.60;0.60;;;6.50;81.70;5.60;95891.00;;;;5076445;28;20245;-62
2023/12/20 00:57:12;;;;;;;0.60;0.60;;;6.50;80.60;5.70;95888.00;;;;5076405;28;20198;-63
2023/12/20 00:59:39;;;;;;;0.77;0.77;;;6.50;80.50;5.60;95898.00;;;;5076826;28;20190;-61
2023/12/20 01:02:06;;;;;;;0.70;0.70;;;6.50;81.10;5.70;95901.00;;;;5076357;28;20306;-61
2023/12/20 01:04:35;;;;;;;0.90;0.90;;;6.50;80.90;5.50;95887.00;;;;5077072;28;20273;-63
2023/12/20 01:07:03;;;;;;;0.60;0.60;;;6.40;81.40;5.50;95905.00;;;;5076231;28;20219;-63
2023/12/20 01:09:30;;;;;;;0.60;0.60;;;6.30;82.00;5.50;95908.00;;;;5076248;28;20188;-62
2023/12/20 01:11:57;;;;;;;0.60;0.60;;;6.30;83.10;5.40;95912.00;;;;5075878;28;20210;-63
2023/12/20 01:14:24;;;;;;;0.60;0.60;;;6.20;83.10;5.60;95910.00;;;;5074774;28;20195;-62
2023/12/20 01:16:51;;;;;;;0.50;0.50;;;6.30;98.60;5.50;95906.00;;;;5075627;28;20206;-62
2023/12/20 01:19:18;;;;;;;0.70;0.70;;;6.40;86.30;5.40;95899.00;;;;5090463;28;20630;-63
2023/12/20 01:21:46;;;;;;;0.90;0.90;;;6.30;85.50;5.60;95912.00;;;;5075210;28;20203;-63
2023/12/20 01:24:13;;;;;;;0.60;0.60;;;6.30;99.90;5.70;95907.00;;;;5074900;28;20205;-63
2023/12/20 01:26:40;;;;;;;0.53;0.53;;;6.50;97.20;5.80;95918.00;;;;5074934;28;20228;-63
2023/12/20 01:29:07;;;;;;;0.60;0.60;;;6.50;90.70;5.70;95909.00;;;;5090267;28;20205;-63
2023/12/20 01:31:34;;;;;;;0.60;0.60;;;6.50;88.90;5.80;95915.00;;;;5074520;28;20597;-63
2023/12/20 01:34:01;;;;;;;0.57;0.57;;;6.60;85.50;5.80;95916.00;;;;5074677;28;20533;-62
2023/12/20 01:36:29;;;;;;;0.60;0.60;;;6.50;81.30;5.70;95911.00;;;;5074770;28;20203;-62
2023/12/20 01:38:57;;;;;;;0.60;0.60;;;6.50;80.80;5.70;95913.00;;;;5074851;28;20274;-62
2023/12/20 01:41:24;;;;;;;0.60;0.60;;;6.50;81.10;5.70;95913.00;;;;5074592;28;20198;-62
2023/12/20 01:43:53;;;;;;;0.60;0.60;;;6.50;80.60;5.70;95892.00;;;;5074639;28;20194;-62
2023/12/20 01:46:21;;;;;;;0.53;0.53;;;6.50;81.60;5.70;95900.00;;;;5074706;28;20243;-62
2023/12/20 01:48:49;;;;;;;0.77;0.77;;;6.50;81.40;5.80;95889.00;;;;5074630;28;20211;-62
2023/12/20 01:51:17;;;;;;;0.67;0.67;;;6.50;81.90;5.80;95909.00;;;;5074106;28;20675;-62
2023/12/20 01:53:45;;;;;;;0.70;0.70;;;6.50;80.40;5.70;95907.00;;;;5074338;28;20187;-62
2023/12/20 01:56:14;;;;;;;0.57;0.57;;;6.50;80.60;5.70;95902.00;;;;5074683;28;20192;-62
2023/12/20 01:58:48;;;;;;;0.60;0.60;;;6.50;81.10;5.70;95899.00;;;;5074114;28;20266;-62
2023/12/20 02:01:16;;;;;;;0.60;0.60;;;6.50;80.00;5.60;95904.00;;;;5073998;28;20172;-62
2023/12/20 02:03:43;;;;;;;0.50;0.50;;;6.40;80.10;5.60;95912.00;;;;5074522;28;20191;-62
2023/12/20 02:06:11;;;;;;;0.60;0.60;;;6.40;79.80;5.60;95915.00;;;;5074026;28;20222;-62
2023/12/20 02:08:38;;;;;;;0.50;0.50;;;6.50;79.90;5.60;95909.00;;;;5073973;28;20195;-62
2023/12/20 02:11:05;;;;;;;0.70;0.70;;;6.40;80.20;5.50;95911.00;;;;5073952;28;20187;-62
2023/12/20 02:13:33;;;;;;;0.67;0.67;;;6.30;80.30;5.60;95908.00;;;;5073858;28;20576;-62
2023/12/20 02:16:02;;;;;;;0.50;0.50;;;6.40;80.40;5.70;95916.00;;;;5073957;28;20190;-62
2023/12/20 02:18:29;;;;;;;0.50;0.50;;;6.40;80.00;5.50;95904.00;;;;5037808;28;1053216;-62
2023/12/20 02:20:56;;;;;;;0.50;0.50;;;6.30;79.50;5.40;95908.00;;;;5074919;28;20184;-62
2023/12/20 02:23:25;;;;;;;0.60;0.60;;;6.30;79.50;5.50;95902.00;;;;5074521;28;20229;-62
2023/12/20 02:25:52;;;;;;;0.60;0.60;;;6.30;79.50;5.50;95896.00;;;;5074590;28;20196;-62
2023/12/20 02:28:21;;;;;;;0.63;0.63;;;6.30;78.10;5.50;95904.00;;;;5073109;28;20681;-62
2023/12/20 02:30:49;;;;;;;0.50;0.50;;;6.30;78.90;5.40;95904.00;;;;5075282;28;20304;-62
2023/12/20 02:33:17;;;;;;;0.60;0.60;;;6.30;79.50;5.40;95901.00;;;;5074475;28;20277;-62
2023/12/20 02:35:44;;;;;;;0.50;0.50;;;6.20;80.60;5.40;95901.00;;;;5074374;28;20661;-62
2023/12/20 02:38:11;;;;;;;0.60;0.60;;;6.20;80.10;5.40;95891.00;;;;5074434;28;20191;-62
2023/12/20 02:40:39;;;;;;;0.60;0.60;;;6.20;79.40;5.30;95907.00;;;;5074572;28;20644;-62
2023/12/20 02:43:06;;;;;;;0.60;0.60;;;6.20;79.10;5.30;95905.00;;;;5074241;28;20211;-62
2023/12/20 02:45:33;;;;;;;0.50;0.50;;;6.10;78.70;5.40;95907.00;;;;5074353;28;20188;-62
2023/12/20 02:48:00;;;;;;;0.60;0.60;;;6.10;79.30;5.30;95910.00;;;;5072947;28;20216;-62
2023/12/20 02:50:27;;;;;;;0.50;0.50;;;6.10;79.50;5.20;95907.00;;;;5074076;28;20264;-62
2023/12/20 02:52:54;;;;;;;0.67;0.67;;;6.10;80.10;5.30;95910.00;;;;5073991;28;20211;-62
2023/12/20 02:55:21;;;;;;;0.60;0.60;;;6.10;79.60;5.40;95910.00;;;;5074001;28;20191;-62
2023/12/20 02:57:50;;;;;;;0.53;0.53;;;6.10;80.30;5.30;95914.00;;;;5072782;28;20191;-62
2023/12/20 03:00:17;;;;;;;0.60;0.60;;;6.10;79.70;5.20;95906.00;;;;5074086;28;20183;-62
2023/12/20 03:02:44;;;;;;;0.57;0.57;;;6.10;78.70;5.30;95903.00;;;;5073550;28;20223;-62
2023/12/20 03:05:11;;;;;;;0.50;0.50;;;6.10;79.30;5.10;95919.00;;;;5073855;28;20198;-62
2023/12/20 03:07:38;;;;;;;0.60;0.60;;;6.00;79.40;5.20;95918.00;;;;5073733;28;20230;-62
2023/12/20 03:10:09;;;;;;;0.60;0.60;;;6.00;79.70;5.20;95905.00;;;;5073726;28;20194;-62
2023/12/20 03:12:36;;;;;;;0.60;0.60;;;6.00;80.30;5.10;95901.00;;;;5073974;28;20215;-62
2023/12/20 03:15:05;;;;;;;0.67;0.67;;;6.00;81.00;4.90;95908.00;;;;5073953;28;20187;-62
2023/12/20 03:17:32;;;;;;;0.60;0.60;;;5.90;82.40;4.90;95917.00;;;;5073590;28;20196;-62
2023/12/20 03:19:59;;;;;;;0.60;0.60;;;5.80;83.20;5.00;95919.00;;;;5073874;28;20547;-62
2023/12/20 03:22:26;;;;;;;0.50;0.50;;;5.80;83.30;5.10;95928.00;;;;5073693;28;20218;-62
2023/12/20 03:24:53;;;;;;;0.60;0.60;;;5.90;82.60;4.90;95926.00;;;;5073833;28;20708;-62
2023/12/20 03:27:20;;;;;;;0.50;0.50;;;5.80;82.50;4.80;95929.00;;;;5073400;28;20219;-62
2023/12/20 03:29:47;;;;;;;0.60;0.60;;;5.70;84.10;4.80;95929.00;;;;5073492;28;20591;-62
2023/12/20 03:32:15;;;;;;;0.77;0.77;;;5.60;84.50;4.80;95926.00;;;;5073290;28;20604;-62
2023/12/20 03:34:41;;;;;;;0.60;0.60;;;5.60;85.50;4.90;95934.00;;;;5073367;28;20196;-62
2023/12/20 03:37:08;;;;;;;0.60;0.60;;;5.70;86.50;4.70;95935.00;;;;5073342;28;20198;-62
2023/12/20 03:39:36;;;;;;;0.67;0.67;;;5.60;83.40;4.80;95935.00;;;;5073328;28;20193;-62
2023/12/20 03:42:03;;;;;;;0.60;0.60;;;5.60;84.30;4.80;95950.00;;;;5073449;28;20207;-62
2023/12/20 03:44:30;;;;;;;0.60;0.60;;;5.60;82.90;4.70;95937.00;;;;5073897;28;20551;-62
2023/12/20 03:46:57;;;;;;;0.60;0.60;;;5.60;83.20;4.80;95930.00;;;;5073104;28;20222;-62
2023/12/20 03:49:25;;;;;;;0.60;0.60;;;5.60;83.80;4.70;95938.00;;;;5073747;28;20198;-63
2023/12/20 03:51:52;;;;;;;0.60;0.60;;;5.50;83.10;4.50;95936.00;;;;5073041;28;20208;-62
2023/12/20 03:54:19;;;;;;;0.60;0.60;;;5.50;83.50;4.70;95935.00;;;;5073137;28;20543;-62
2023/12/20 03:56:46;;;;;;;0.60;0.60;;;5.50;83.20;4.60;95945.00;;;;5073185;28;20196;-62
2023/12/20 03:59:13;;;;;;;0.60;0.60;;;5.50;82.20;4.70;95941.00;;;;5073144;28;20192;-62
2023/12/20 04:01:45;;;;;;;0.60;0.60;;;5.50;81.20;4.70;95956.00;;;;5071641;28;20211;-62
2023/12/20 04:04:12;;;;;;;0.50;0.50;;;5.50;82.60;4.60;95949.00;;;;5073130;28;20517;-62
2023/12/20 04:06:41;;;;;;;0.60;0.60;;;5.40;81.90;4.50;95938.00;;;;5071551;28;20559;-62
2023/12/20 04:09:09;;;;;;;0.60;0.60;;;5.40;82.60;4.50;95945.00;;;;5072967;28;20667;-62
2023/12/20 04:11:36;;;;;;;0.60;0.60;;;5.40;83.40;4.50;95946.00;;;;5073000;28;20207;-62
2023/12/20 04:14:04;;;;;;;0.60;0.60;;;5.40;82.80;4.50;95949.00;;;;5074093;28;20187;-62
2023/12/20 04:16:31;;;;;;;0.60;0.60;;;5.30;83.10;4.50;95961.00;;;;5076885;28;20588;-62
2023/12/20 04:18:58;;;;;;;0.70;0.70;;;5.40;82.30;4.50;95951.00;;;;5077356;28;20187;-62
2023/12/20 04:21:25;;;;;;;0.60;0.60;;;5.30;82.00;4.50;95954.00;;;;5077105;28;20191;-62
2023/12/20 04:23:54;;;;;;;0.70;0.70;;;5.40;79.80;4.60;95935.00;;;;5077213;28;20188;-62
2023/12/20 04:26:21;;;;;;;0.60;0.60;;;5.40;80.50;4.40;95948.00;;;;5077219;28;20188;-62
2023/12/20 04:28:48;;;;;;;0.70;0.70;;;5.30;81.20;4.40;95947.00;;;;5076928;28;20217;-62
2023/12/20 04:31:15;;;;;;;0.50;0.50;;;5.20;81.70;4.40;95947.00;;;;5076836;28;20575;-62
2023/12/20 04:33:42;;;;;;;0.60;0.60;;;5.20;81.00;4.40;95950.00;;;;5075694;28;20195;-62
2023/12/20 04:36:10;;;;;;;0.60;0.60;;;5.30;83.20;4.40;95958.00;;;;5076839;28;20184;-62
2023/12/20 04:38:37;;;;;;;0.60;0.60;;;5.30;81.30;4.50;95978.00;;;;5076860;28;20233;-62
2023/12/20 04:41:05;;;;;;;0.60;0.60;;;5.30;81.10;4.50;95957.00;;;;5076711;28;20721;-62
2023/12/20 04:43:32;;;;;;;0.70;0.70;;;5.30;80.70;4.60;95961.00;;;;5076372;28;20208;-62
2023/12/20 04:45:59;;;;;;;0.60;0.60;;;5.40;80.40;4.60;95955.00;;;;5076655;28;20192;-62
2023/12/20 04:48:26;;;;;;;0.60;0.60;;;5.40;80.60;4.60;95976.00;;;;5076714;28;20223;-62
2023/12/20 04:50:53;;;;;;;0.60;0.60;;;5.40;80.50;4.60;95973.00;;;;5076603;28;20198;-62
2023/12/20 04:53:20;;;;;;;0.70;0.70;;;5.40;81.00;4.40;95984.00;;;;5075091;28;20311;-62
2023/12/20 04:55:47;;;;;;;0.60;0.60;;;5.40;80.50;4.50;95983.00;;;;5076414;28;20230;-62
2023/12/20 04:58:16;;;;;;;0.60;0.60;;;5.30;80.90;4.50;95975.00;;;;5076444;28;20199;-62
2023/12/20 05:00:43;;;;;;;0.53;0.53;;;5.40;81.00;4.50;95980.00;;;;5076102;28;20207;-62
2023/12/20 05:03:10;;;;;;;0.60;0.60;;;5.40;81.20;4.50;95989.00;;;;5076116;28;20204;-62
2023/12/20 05:05:37;;;;;;;0.57;0.57;;;5.40;81.10;4.50;95985.00;;;;5076268;28;20196;-62
2023/12/20 05:08:05;;;;;;;0.60;0.60;;;5.40;81.10;4.50;95997.00;;;;5076228;28;20215;-62
2023/12/20 05:10:32;;;;;;;0.53;0.53;;;5.40;81.30;4.60;95995.00;;;;5076011;28;20565;-62
2023/12/20 05:12:59;;;;;;;0.60;0.60;;;5.40;82.10;4.60;96001.00;;;;5075846;28;20210;-62
2023/12/20 05:15:27;;;;;;;0.80;0.80;;;5.40;82.60;4.50;95998.00;;;;5075974;28;20195;-62
2023/12/20 05:17:54;;;;;;;0.60;0.60;;;5.40;83.50;4.50;96010.00;;;;5075931;28;20565;-62
2023/12/20 05:20:21;;;;;;;0.60;0.60;;;5.40;84.00;4.50;96012.00;;;;5075552;28;20195;-62
2023/12/20 05:22:48;;;;;;;0.60;0.60;;;5.30;84.80;4.50;96008.00;;;;5076574;28;20211;-62
2023/12/20 05:25:15;;;;;;;0.60;0.60;;;5.20;85.40;4.50;96015.00;;;;5075626;28;20267;-62
2023/12/20 05:27:42;;;;;;;0.53;0.53;;;5.30;85.40;4.50;96017.00;;;;5075693;28;20215;-62
2023/12/20 05:30:13;;;;;;;0.60;0.60;;;5.30;85.70;4.50;96025.00;;;;5075733;28;20187;-62
2023/12/20 05:32:42;;;;;;;0.60;0.60;;;5.40;85.10;4.60;96028.00;;;;5075664;28;20621;-62
2023/12/20 05:35:09;;;;;;;0.67;0.67;;;5.40;85.50;4.60;96023.00;;;;5075950;28;20217;-62
2023/12/20 05:37:36;;;;;;;0.83;0.83;;;5.50;85.60;4.50;96033.00;;;;5075632;28;20214;-62
2023/12/20 05:40:04;;;;;;;0.60;0.60;;;5.40;85.80;4.70;96041.00;;;;5075858;28;20189;-62
2023/12/20 05:42:31;;;;;;;0.60;0.60;;;5.50;86.20;4.70;96045.00;;;;5075621;28;20728;-62
2023/12/20 05:44:58;;;;;;;0.60;0.60;;;5.50;85.20;4.80;96038.00;;;;5075750;28;20187;-62
2023/12/20 05:47:25;;;;;;;0.50;0.50;;;5.60;85.10;4.70;96047.00;;;;5074191;28;20702;-62
2023/12/20 05:49:53;;;;;;;0.60;0.60;;;5.50;85.70;4.70;96048.00;;;;5075315;28;20262;-62
2023/12/20 05:52:20;;;;;;;0.57;0.57;;;5.50;86.60;4.70;96043.00;;;;5075193;28;20211;-62
2023/12/20 05:54:47;;;;;;;0.60;0.60;;;5.50;86.50;4.60;96036.00;;;;5075418;28;20683;-62
2023/12/20 05:57:15;;;;;;;0.60;0.60;;;5.50;86.20;4.70;96034.00;;;;5075175;28;20183;-61
2023/12/20 05:59:42;;;;;;;0.63;0.63;;;5.50;86.90;4.70;96048.00;;;;5075045;28;20537;-61
2023/12/20 06:02:09;;;;;;;0.60;0.60;;;5.50;86.80;4.70;96056.00;;;;5075034;28;20214;-62
2023/12/20 06:04:36;;;;;;;0.50;0.50;;;5.50;87.00;4.70;96061.00;;;;5075052;28;20195;-62
2023/12/20 06:07:05;;;;;;;0.60;0.60;;;5.50;87.60;4.70;96065.00;;;;5075180;28;20551;-62
2023/12/20 06:09:32;;;;;;;1.00;1.00;;;5.50;86.80;4.60;96073.00;;;;5075176;28;20663;-62
2023/12/20 06:11:59;;;;;;;0.70;0.70;;;5.40;87.50;4.60;96065.00;;;;5074959;28;20662;-62
2023/12/20 06:14:26;;;;;;;0.60;0.60;;;5.40;87.90;4.50;96067.00;;;;5074969;28;20187;-62
2023/12/20 06:16:53;;;;;;;0.60;0.60;;;5.30;89.40;4.40;96064.00;;;;5074690;28;20223;-61
2023/12/20 06:19:20;;;;;;;0.60;0.60;;;5.30;88.90;4.40;96066.00;;;;5075464;28;20623;-61
2023/12/20 06:21:47;;;;;;;0.60;0.60;;;;;4.40;96068.00;;;;5074995;28;20211;-61
2023/12/20 06:24:15;;;;;;;0.60;0.60;;;5.30;88.00;4.50;96068.00;;;;5075472;28;20203;-61
2023/12/20 06:26:44;;;;;;;0.60;0.60;;;;;4.60;96073.00;;;;5074866;28;20195;-62
2023/12/20 06:29:11;;;;;;;0.60;0.60;;;5.40;86.90;4.50;96061.00;;;;5074466;28;20211;-61
2023/12/20 06:31:38;;;;;;;0.70;0.70;;;5.40;86.50;4.50;96066.00;;;;5074649;28;20215;-62
2023/12/20 06:34:05;;;;;;;0.70;0.70;;;5.30;87.60;4.60;96067.00;;;;5074648;28;20187;-61
2023/12/20 06:36:32;;;;;;;0.80;0.80;;;5.50;87.60;4.60;96075.00;;;;5073896;28;20188;-61
2023/12/20 06:38:59;;;;;;;0.80;0.80;;;5.50;87.10;4.50;96078.00;;;;5074500;28;20196;-61
2023/12/20 06:41:27;;;;;;;0.50;0.50;;;5.40;87.40;4.60;96086.00;;;;5074397;28;20192;-61
2023/12/20 06:43:54;;;;;;;0.73;0.73;;;5.40;87.60;4.60;96085.00;;;;5072942;28;20196;-61
2023/12/20 06:46:21;;;;;;;0.60;0.60;;;5.40;88.00;4.50;96087.00;;;;5074677;28;20188;-61
2023/12/20 06:48:48;;;;;;;0.60;0.60;;;5.40;88.60;4.40;96089.00;;;;5072803;28;20219;-62
2023/12/20 06:51:17;;;;;;;0.67;0.67;;;5.30;89.20;4.30;96082.00;;;;5073974;28;20639;-61
2023/12/20 06:53:45;;;;;;;0.70;0.70;;;5.30;89.40;4.60;96087.00;;;;5074001;28;20672;-62
2023/12/20 06:56:12;;;;;;;0.70;0.70;;;5.30;89.60;4.50;96103.00;;;;5074165;28;20215;-61
2023/12/20 06:58:41;;;;;;;0.63;0.63;;;5.30;89.30;4.50;96110.00;;;;5073938;28;20262;-61
2023/12/20 07:01:12;;;;;;;0.60;0.60;;;5.30;89.90;4.50;96103.00;;;;5073997;28;20190;-61
2023/12/20 07:03:40;;;;;;;0.70;0.70;;;5.30;90.00;4.40;96109.00;;;;5073870;28;20190;-61
2023/12/20 07:06:07;;;;;;;1.03;1.00;;;5.20;90.10;4.40;96117.00;;;;5074245;28;20522;-62
2023/12/20 07:08:34;;;;;;;0.70;0.70;;;5.20;88.50;4.40;96118.00;;;;5074311;28;20219;-62
2023/12/20 07:11:01;;;;;;;0.70;0.70;;;5.20;89.20;4.40;96112.00;;;;5073792;28;20218;-62
2023/12/20 07:13:28;;;;;;;0.80;0.80;;;5.20;88.10;4.50;96120.00;;;;5073544;28;20286;-62
2023/12/20 07:15:57;;;;;;;0.60;0.60;;;5.30;88.40;4.30;96126.00;;;;5074405;28;20562;-62
2023/12/20 07:18:24;;;;;;;1.03;1.03;;;5.20;88.10;4.40;96118.00;;;;5074076;28;20214;-62
2023/12/20 07:20:51;;;;;;;0.70;0.70;;;5.20;89.00;4.40;96106.00;;;;5073440;28;20185;-62
2023/12/20 07:23:19;;;;;;;0.80;0.80;;;5.30;89.30;4.50;96128.00;;;;5073296;28;20215;-62
2023/12/20 07:25:46;;;;;;;0.73;0.73;;;5.20;89.40;4.40;96129.00;;;;5073372;28;20265;-62
2023/12/20 07:28:13;;;;;;;0.63;0.63;;;5.20;89.10;4.40;96131.00;;;;5073368;28;20215;-62
2023/12/20 07:30:40;;;;;;;0.60;0.60;;;5.20;89.70;4.40;96133.00;;;;5073495;28;20188;-63
2023/12/20 07:33:10;;;;;;;0.67;0.67;;;5.20;89.70;4.30;96136.00;;;;5073541;28;20211;-62
2023/12/20 07:35:37;;;;;;;0.83;0.83;;;5.20;89.20;4.40;96143.00;;;;5073596;28;20220;-62
2023/12/20 07:38:04;;;;;;;0.90;0.90;;;5.20;89.50;4.50;96145.00;;;;5073324;28;20199;-62
2023/12/20 07:40:31;;;;;;;0.70;0.70;;;5.20;90.50;4.40;96137.00;;;;5073292;28;20196;-62
2023/12/20 07:42:58;;;;;;;0.70;0.70;;;5.30;89.70;4.40;96134.00;;;;5073166;28;20593;-62
2023/12/20 07:45:25;;;;;;;0.80;0.80;;;5.20;90.20;4.60;96138.00;;;;5073648;28;20243;-62
2023/12/20 07:47:53;;;;;;;0.60;0.60;;;;;4.40;96141.00;;;;5073030;28;20184;-62
2023/12/20 07:50:21;;;;;;;0.83;0.83;;;6.10;99.90;4.50;96139.00;;;;5073198;28;20187;-62
2023/12/20 07:52:48;;;;;;;0.67;0.67;;;5.30;94.10;4.50;96147.00;;;;5073031;28;20286;-62
2023/12/20 07:55:16;;;;;;;0.60;0.60;;;5.30;89.90;4.40;96146.00;;;;5073647;28;20189;-62
2023/12/20 07:57:43;;;;;;;0.60;0.60;;;5.30;90.40;4.50;96145.00;;;;5073680;28;20241;-61
2023/12/20 08:00:11;;;;;;;0.60;0.60;;;5.30;90.00;4.60;96156.00;;;;5073515;28;20183;-62
2023/12/20 08:02:39;;;;;;;0.70;0.70;;;5.30;90.00;4.40;96161.00;;;;5073116;28;20218;-61
2023/12/20 08:05:06;;;;;;;0.60;0.60;;;5.20;89.30;4.50;96159.00;;;;5073109;28;20553;-62
2023/12/20 08:07:35;;;;;;;0.70;0.70;;;5.30;90.30;4.30;96171.00;;;;5071693;28;20573;-62
2023/12/20 08:10:02;;;;;;;0.87;0.87;;;5.20;92.00;4.30;96166.00;;;;5072851;28;20227;-62
2023/12/20 08:12:29;;;;;;;0.63;0.63;;;5.10;87.20;4.20;96159.00;;;;5072950;28;20210;-62
2023/12/20 08:14:56;;;;;;;0.60;0.60;;;;;4.10;96162.00;;;;5072954;28;20188;-63
2023/12/20 08:17:24;;;;;;;0.60;0.60;;;5.00;87.20;4.10;96184.00;;;;5072878;28;20209;-61
2023/12/20 08:19:52;;;;;;;0.87;0.87;;;4.90;83.60;4.00;96199.00;;;;5073731;28;20191;-62
2023/12/20 08:22:19;;;;;;;0.70;0.70;;;4.80;82.40;4.00;96173.00;;;;5074005;28;20204;-62
2023/12/20 08:24:47;;;;;;;0.77;0.77;;;4.80;84.10;4.10;96186.00;;;;5071987;28;20659;-62
2023/12/20 08:27:15;;;;;;;1.00;0.90;;;4.70;81.80;3.70;96166.00;;;;5073139;28;20586;-62
2023/12/20 08:29:44;;;;;;;1.57;1.47;;;4.70;82.80;3.70;96177.00;;;;5072944;28;20582;-62
2023/12/20 08:32:11;;;;;;;1.20;1.10;;;4.70;84.10;3.70;96177.00;;;;5072811;28;20207;-62
2023/12/20 08:34:39;;;;;;;0.80;0.80;;;4.60;82.30;3.70;96175.00;;;;5072649;28;20274;-62
2023/12/20 08:37:06;;;;;;;0.90;0.90;;;;;3.70;96179.00;;;;5072690;28;20192;-62
2023/12/20 08:39:33;;;;;;;0.60;0.60;;;4.50;99.90;3.60;96184.00;;;;5073114;28;20275;-62
2023/12/20 08:42:02;;;;;;;0.80;0.80;;;4.60;92.70;3.60;96190.00;;;;5072690;28;20543;-62
2023/12/20 08:44:29;;;;;;;0.70;0.70;;;4.50;81.00;3.50;96183.00;;;;5072799;28;20196;-62
2023/12/20 08:46:57;;;;;;;0.87;0.87;;;4.40;80.00;3.50;96193.00;;;;5072972;28;20245;-62
2023/12/20 08:49:25;;;;;;;0.77;0.77;;;4.40;80.50;3.40;96194.00;;;;5073137;28;20219;-62
2023/12/20 08:51:54;;;;;;;0.77;0.77;;;4.30;81.40;3.40;96200.00;;;;5072718;28;20297;-63
2023/12/20 08:54:25;;;;;;;1.00;1.00;;;4.30;81.40;3.40;96199.00;;;;5073013;28;20184;-61
2023/12/20 08:56:52;;;;;;;0.60;0.60;;;4.30;82.20;3.50;96200.00;;;;5072644;28;20190;-62
2023/12/20 08:59:20;;;;;;;0.80;0.80;;;4.30;82.80;3.50;96207.00;;;;5072520;28;20670;-62
2023/12/20 09:01:48;;;;;;;0.70;0.70;;;4.40;80.50;3.60;96194.00;;;;5076128;28;20203;-62
2023/12/20 09:04:15;;;;;;;0.90;0.90;;;4.40;80.90;3.80;96183.00;;;;5076077;28;20183;-62
2023/12/20 09:06:42;;;;;;;0.73;0.73;;;4.50;80.30;3.80;96200.00;;;;5076309;28;20551;-62
2023/12/20 09:09:13;;;;;;;0.90;0.90;;;4.70;79.00;3.80;96202.00;;;;5076083;28;20616;-62
2023/12/20 09:11:40;;;;;;;1.13;1.10;;;4.70;79.10;3.80;96188.00;;;;5076084;28;20208;-62
2023/12/20 09:14:07;;;;;;;0.87;0.87;;;4.60;78.40;3.90;96188.00;;;;5076313;28;20183;-62
2023/12/20 09:16:36;;;;;;;0.67;0.67;;;4.70;78.50;4.00;96187.00;;;;5076010;28;20190;-62
2023/12/20 09:19:03;;;;;;;0.60;0.60;;;4.80;77.80;4.10;96184.00;;;;5076354;28;20180;-62
2023/12/20 09:21:30;;;;;;;0.57;0.57;;;4.90;76.20;4.20;96178.00;;;;5075814;28;20654;-62
2023/12/20 09:23:57;;;;;;;0.80;0.80;;;4.90;75.50;4.20;96180.00;;;;5075897;28;20754;-62
2023/12/20 09:26:24;;;;;;;0.60;0.60;;;5.00;75.20;4.30;96179.00;;;;5075896;28;20528;-62
2023/12/20 09:28:51;;;;;;;1.53;1.00;;;5.00;74.30;4.40;96166.00;;;;5075613;28;20298;-62
2023/12/20 09:31:19;;;;;;;0.50;0.50;;;5.10;85.70;4.40;96179.00;;;;5076028;28;20223;-62
2023/12/20 09:33:47;;;;;;;0.83;0.83;;;5.10;73.80;4.50;96182.00;;;;5075813;28;20222;-62
2023/12/20 09:36:14;;;;;;;0.70;0.70;;;5.20;73.60;4.70;96192.00;;;;5075865;28;20215;-61
2023/12/20 09:38:42;;;;;;;0.80;0.77;;;5.40;73.80;4.70;96195.00;;;;5075606;28;20201;-61
2023/12/20 09:41:12;;;;;;;0.60;0.60;;;5.50;71.50;4.70;96195.00;;;;5076120;28;20230;-61
2023/12/20 09:43:40;;;;;;;0.70;0.70;;;5.50;71.00;4.60;96196.00;;;;5075512;28;20201;-61
2023/12/20 09:46:08;;;;;;;0.50;0.50;;;5.40;70.90;4.70;96205.00;;;;5075344;28;20250;-61
2023/12/20 09:48:37;;;;;;;0.90;0.90;;;5.40;70.60;4.50;96198.00;;;;5075794;28;20298;-61
2023/12/20 09:51:06;;;;;;;0.93;0.93;;;5.30;69.20;4.40;96206.00;;;;5075925;28;20192;-61
2023/12/20 09:53:39;;;;;;;1.70;1.00;;;5.20;70.70;4.20;96217.00;;;;5075211;28;20217;-61
2023/12/20 09:56:07;;;;;;;0.90;0.90;;;5.00;70.00;4.10;96216.00;;;;5075164;28;20234;-61
2023/12/20 09:58:39;;;;;;;2.40;1.57;;;5.00;70.40;4.40;96215.00;;;;5075122;28;20187;-61
2023/12/20 10:01:07;;;;;;;1.00;1.00;;;5.10;70.60;4.50;96206.00;;;;5075198;28;20184;-61
2023/12/20 10:03:36;;;;;;;0.60;0.60;;;5.20;69.60;4.30;96210.00;;;;5074994;28;20254;-61
2023/12/20 10:06:05;;;;;;;1.17;1.03;;;5.10;69.10;4.40;96212.00;;;;5074918;28;20596;-61
2023/12/20 10:08:32;;;;;;;0.60;0.60;;;5.20;69.00;4.30;96217.00;;;;5074971;28;20275;-61
2023/12/20 10:11:03;;;;;;;0.77;0.77;;;5.10;69.60;4.20;96213.00;;;;5074301;28;20576;-61
2023/12/20 10:13:31;;;;;;;0.80;0.80;;;5.10;67.20;4.10;96199.00;;;;5074782;28;20211;-61
2023/12/20 10:15:58;;;;;;;0.80;0.80;;;5.00;67.70;4.30;96197.00;;;;5075045;28;20196;-61
2023/12/20 10:18:25;;;;;;;0.80;0.80;;;5.10;69.50;4.10;96195.00;;;;5074620;28;20206;-61
2023/12/20 10:20:52;;;;;;;0.70;0.70;;;4.90;70.50;4.20;96188.00;;;;5074989;28;20309;-61
2023/12/20 10:23:21;;;;;;;0.60;0.60;;;5.00;70.30;4.40;96212.00;;;;5074805;28;20298;-61
2023/12/20 10:25:58;;;;;;;0.60;0.60;;;5.10;70.70;4.50;96177.00;;;;5074980;28;20190;-61
2023/12/20 10:28:27;;;;;;;0.73;0.73;;;5.20;68.90;4.70;96179.00;;;;5074501;28;20554;-61
2023/12/20 10:30:56;;;;;;;0.60;0.60;;;5.40;67.40;4.60;96182.00;;;;5074565;28;20185;-61
2023/12/20 10:33:28;;;;;;;0.93;0.93;;;5.30;65.50;4.30;96197.00;;;;5074393;28;20266;-61
2023/12/20 10:35:56;;;;;;;0.70;0.70;;;5.20;66.00;4.40;96186.00;;;;5074376;28;20270;-62
2023/12/20 10:38:25;;;;;;;0.57;0.57;;;5.20;66.70;4.40;96176.00;;;;5074291;28;20183;-61
2023/12/20 10:40:58;;;;;;;1.50;0.90;;;5.20;66.90;4.30;96178.00;;;;5074411;28;20193;-61
2023/12/20 10:43:27;;;;;;;0.70;0.70;;;5.20;68.70;4.40;96181.00;;;;5074722;28;20207;-62
2023/12/20 10:45:54;;;;;;;1.40;1.00;;;5.20;67.70;4.50;96171.00;;;;5074528;28;20187;-61
2023/12/20 10:48:28;;;;;;;2.63;1.03;;;5.20;67.70;4.50;96175.00;;;;5074199;28;20677;-62
2023/12/20 10:50:57;;;;;;;3.40;0.90;;;5.30;66.20;4.60;96166.00;;;;5074703;28;20210;-61
2023/12/20 10:53:26;;;;;;;1.10;1.00;;;5.40;65.70;4.70;96170.00;;;;5074603;28;20207;-61
2023/12/20 10:55:56;;;;;;;0.67;0.67;;;5.40;64.80;4.80;96162.00;;;;5074528;28;20191;-61
2023/12/20 10:58:26;;;;;;;0.73;0.73;;;5.50;64.80;4.80;96167.00;;;;5073968;28;20192;-61
2023/12/20 11:01:01;;;;;;;1.80;1.27;;;5.50;63.60;4.70;96168.00;;;;5073919;28;20199;-62
2023/12/20 11:03:33;;;;;;;0.60;0.60;;;5.50;63.50;4.80;96166.00;;;;5073893;28;20207;-62
2023/12/20 11:06:13;;;;;;;0.63;0.63;;;5.60;65.80;4.80;96171.00;;;;5074021;28;20240;-63
2023/12/20 11:08:52;;;;;;;3.40;1.27;;;5.60;62.70;4.50;96165.00;;;;5073983;28;20186;-62
2023/12/20 11:11:31;;;;;;;2.23;1.03;;;5.40;63.30;4.70;96165.00;;;;5074002;28;20207;-62